Amsterdam, MT

6:28 PM MST on December 18, 2014 (GMT -0700)
Churchill MT | Change Station
CLOSE
Current Station
Personal Weather Station
Location: Manhattan, MT
Elevation: 4583 ft
Nearby Weather Stations

Elev 4583 ft 45.75 °N, 111.31 °W | Updated 11 minutes ago

Overcast
Overcast
27.9 °F
Feels Like 28 °F
N
0.0
Wind Variable Wind from North
Gusts 0.0 mph

Today
High -- | Low -- °F
--% Chance of Precip.
Yesterday
High -- | Low -- °F
Precip. -- in
8:01 AM 4:42 PM
Waning Crescent, 11% visible
Pressure 30.17 in
Visibility 10.0 miles
Clouds Mostly Cloudy 6500 ft
Overcast 8500 ft
Windchill 28 °F
Dew Point 23 °F
Humidity 83%
Rainfall 0.00 in
Snow Depth Not available.
UV 0 out of 12
Pollen .10 out of 12
Air Quality Not available.
Flu Activity Not available.
METAR KBZN 190056Z 02004KT 10SM BKN065 OVC085 M02/M04 A3001 RMK AO2 SLP215 T10221044

More Conditions Fewer Conditions

Pressure 30.17 in
Visibility 10.0 miles
Clouds Mostly Cloudy 6500 ft
Overcast 8500 ft
Windchill 28 °F
Dew Point 23 °F
Humidity 83%
Rainfall 0.00 in
Snow Depth Not available.
UV 0 out of 12
Pollen .10 out of 12
Air Quality Not available.
Flu Activity Not available.
METAR KBZN 190056Z 02004KT 10SM BKN065 OVC085 M02/M04 A3001 RMK AO2 SLP215 T10221044

More Conditions Fewer Conditions

10-Day Weather Forecast

Almanac

Astronomy

Dec. 18, 2014 Rise Set
Actual Time
Civil Twilight
Nautical Twilight
Astronomical Twilight
Moon
Length of Visible Light
Length of Day
Tomorrow will be .
, % of the Moon is Illuminated

Today's Extremes

State Highs State Lows

Community

WunderPhotos

Upload Photos

1,779,032 photos uploaded!

WunderBlogs® & News

Nearby

Air Quality

  Air Quality AQ Index Pollutant
Not available.

Snow Depth

Station Depth Elevation

Earthquake Activity

City Distance Mag. Time & Date
Minimum magnitude displayed is 2.5.

Coastal Water Temperatures

Place Temperature

Nearby Weather Stations